Flight Track Log - Related Links

Times and Time Zones

All times are in EDT time to prevent confusion due to time zone crossing. See the UAL3833 flight status page for this flight to view local times or setup timezone preferences in your user account.

Time Position Orientation Groundspeed Altitude Reporting Facility
EDT Latitude Longitude Course Direction KTS MPH feet Rate Location/Type
Sat 09:39:22 AM 40.5839 -80.2850 42° Northeast 258 297 4,400  Level Cleveland Center
Sat 09:40:22 AM 40.6586 -80.2628 13° North 269 310 6,600 2,350 Climbing Cleveland Center
Sat 09:41:00 AM 40.8372 -80.1794 37° Northeast  Level FlightAware Approximate
Sat 09:41:22 AM 40.7358 -80.2406 12° North 280 322 9,100  Level Cleveland Center
Sat 09:42:00 AM 40.9054 -80.1021 41° Northeast  Level FlightAware Approximate
Sat 09:42:22 AM 40.8169 -80.2100 16° North 285 328 10,700  Level Cleveland Center
Sat 09:43:00 AM 40.9726 -80.0229 42° Northeast  Level FlightAware Approximate
Sat 09:43:22 AM 40.9042 -80.1217 37° Northeast 310 357 11,500  Level Cleveland Center
Sat 09:44:00 AM 41.0392 -79.9430 42° Northeast  Level FlightAware Approximate
Sat 09:44:22 AM 40.9831 -80.0247 43° Northeast 355 409 13,000  Level Cleveland Center
Sat 09:45:22 AM 41.0639 -79.9278 42° Northeast 375 432 14,600 1,500 Climbing Cleveland Center
Sat 09:46:22 AM 41.1364 -79.8414 42° Northeast 382 440 16,000 1,400 Climbing Cleveland Center
Sat 09:47:22 AM 41.2189 -79.7411 42° Northeast 388 447 17,400 1,550 Climbing Cleveland Center
Sat 09:48:22 AM 41.2972 -79.6158 50° Northeast 388 447 19,100 1,500 Climbing Cleveland Center
Sat 09:49:22 AM 41.3022 -79.4664 87° East 368 423 20,400 1,400 Climbing Cleveland Center
Sat 09:50:22 AM 41.3067 -79.3172 88° East 382 440 21,900 1,450 Climbing Cleveland Center
Sat 09:51:22 AM 41.3072 -79.1761 90° East 406 467 23,300 1,300 Climbing Cleveland Center
Sat 09:52:22 AM 41.3114 -79.0242 88° East 406 467 24,500 850 Climbing Cleveland Center
Sat 09:53:22 AM 41.3153 -78.8525 88° East 411 473 25,000 250 Climbing Cleveland Center
Sat 09:54:22 AM 41.3189 -78.6811 88° East 434 499 25,000  Level Cleveland Center
Sat 09:55:22 AM 41.3242 -78.5039 88° East 456 525 25,000  Level Cleveland Center
Sat 09:57:17 AM 41.3250 -78.1561 90° East 509 586 25,000  Level New York Center
Sat 09:58:19 AM 41.3300 -77.9742 88° East 509 586 25,000  Level New York Center
Sat 09:59:19 AM 41.3306 -77.7919 90° East 495 570 25,000  Level New York Center
Sat 10:00:17 AM 41.3344 -77.6181 88° East 485 558 25,000  Level New York Center
Sat 10:01:17 AM 41.3356 -77.4522 89° East 466 536 25,000  Level New York Center
Sat 10:02:18 AM 41.3342 -77.2864 91° East 455 524 25,000  Level New York Center
Sat 10:03:16 AM 41.3369 -77.1208 89° East 450 518 25,000  Level New York Center
Sat 10:04:17 AM 41.3378 -76.9467 90° East 450 518 25,000  Level New York Center
Sat 10:05:19 AM 41.3325 -76.7694 92° East 468 539 25,000  Level New York Center
Sat 10:06:16 AM 41.2908 -76.5972 108° East 468 539 25,000 -814 Level New York Center
Sat 10:07:17 AM 41.2450 -76.4278 110° East 479 551 23,400 -1,900 Descending New York Center
Sat 10:08:16 AM 41.2039 -76.2836 111° Southeast 479 551 21,200 -2,200 Descending New York Center
Sat 10:09:17 AM 41.1597 -76.1119 109° East 455 524 19,000 -2,132 Descending New York Center
Sat 10:10:17 AM 41.1239 -75.9822 110° East 426 490 16,900 -1,950 Descending New York Center
Sat 10:11:17 AM 41.0842 -75.8361 110° East 421 484 15,100 -1,835 Descending New York Center
Sat 10:12:18 AM 41.0431 -75.6789 109° East 416 479 13,200 -1,041 Descending New York Center
Sat 10:13:18 AM 41.0064 -75.5525 111° Southeast 411 473 13,000 -744 Descending New York Center
Sat 10:14:19 AM 40.9625 -75.4011 111° Southeast 406 467 11,700 -1,261 Descending New York Center
Sat 10:15:17 AM 40.9333 -75.2919 109° East 369 425 10,500 -1,322 Descending New York Center
Sat 10:16:17 AM 40.9019 -75.1856 111° Southeast 328 377 9,100 -1,525 Descending New York Center
Sat 10:17:19 AM 40.8708 -75.0739 110° East 296 341 7,400 -1,033 Descending New York Center
Sat 10:18:19 AM 40.8411 -74.9706 111° Southeast 296 341 7,000 -508 Descending New York Center
Sat 10:19:17 AM 40.8242 -74.8625 102° East 296 341 6,400 -504 Descending New York Center
Sat 10:20:18 AM 40.8608 -74.7578 65° Northeast 292 336 6,000 -200 Descending New York Center
Sat 10:21:17 AM 40.8936 -74.6553 67° East 303 349 6,000 -200 Level New York Center
Sat 10:22:18 AM 40.9261 -74.5528 67° East 309 356 5,600 -496 Descending New York Center
Sat 10:23:18 AM 40.9606 -74.4531 65° Northeast 304 350 5,000 -310 Descending New York Center
Sat 10:24:14 AM 40.9667 -74.3667 85° East 267 307 5,000 -207 Level New York TRACON
Sat 10:25:14 AM 40.9500 -74.2667 102° East 252 290 4,600 -526 Descending New York TRACON
Sat 10:26:08 AM 40.9333 -74.1833 105° East 251 289 4,000 -421 Descending New York TRACON
Sat 10:27:08 AM 40.9000 -74.1167 123° Southeast 240 276 3,800 -550 Descending New York TRACON
Sat 10:28:08 AM 40.8667 -74.0833 143° Southeast 182 209 2,900 -650 Descending New York TRACON
Sat 10:29:08 AM 40.8167 -74.0833 180° South 150 173 2,500 -400 Descending New York TRACON

Login

Don't have an account? Register now (free) for customized features, flight alerts, and more!